Time;durP1;ratioP1;P1;durP2;ratioP2;P2;SDS_P1;SDS_P2;PMS_P1;PMS_P2;Temp;Humidity;BMP_temperature;BMP_pressure;BME280_temperature;BME280_humidity;BME280_pressure;Samples;Min_cycle;Max_cycle;Signal;HPM_P1;HPM_P2
2021/10/16 00:00:10;;;;;;;9.60;7.63;;;5.40;99.90;;;;;;5088979;28;20171;-47
2021/10/16 00:02:35;;;;;;;10.10;7.60;;;5.40;99.90;;;;;;5088075;28;20185;-48
2021/10/16 00:05:01;;;;;;;8.43;7.53;;;5.30;99.90;;;;;;5088688;28;20193;-49
2021/10/16 00:07:26;;;;;;;9.83;7.90;;;5.30;99.90;;;;;;5088409;28;20553;-49
2021/10/16 00:09:52;;;;;;;8.60;7.70;;;5.30;99.90;;;;;;5085281;28;20271;-51
2021/10/16 00:12:17;;;;;;;12.37;8.00;;;5.20;99.90;;;;;;5087943;28;20572;-53
2021/10/16 00:14:43;;;;;;;9.00;7.20;;;5.20;99.90;;;;;;5088251;28;20572;-50
2021/10/16 00:17:08;;;;;;;7.90;6.87;;;5.20;99.90;;;;;;5088885;28;20177;-46
2021/10/16 00:19:34;;;;;;;9.03;7.00;;;5.20;99.90;;;;;;5086182;28;20193;-50
2021/10/16 00:21:59;;;;;;;8.37;6.43;;;5.30;99.90;;;;;;5088944;28;20181;-52
2021/10/16 00:24:25;;;;;;;8.37;6.33;;;5.30;99.90;;;;;;5078662;28;20200;-47
2021/10/16 00:26:51;;;;;;;9.87;6.87;;;5.30;99.90;;;;;;5084814;28;20189;-55
2021/10/16 00:29:16;;;;;;;7.00;6.30;;;5.40;99.90;;;;;;5089128;28;20180;-47
2021/10/16 00:31:42;;;;;;;14.70;7.00;;;5.40;99.90;;;;;;5088364;28;20544;-49
2021/10/16 00:34:08;;;;;;;10.18;7.55;;;5.50;99.90;;;;;;5088258;28;20188;-47
2021/10/16 00:36:34;;;;;;;9.90;6.73;;;5.50;99.90;;;;;;5076325;28;20347;-53
2021/10/16 00:38:59;;;;;;;9.77;6.77;;;5.60;99.90;;;;;;5081495;28;20177;-52
2021/10/16 00:41:25;;;;;;;10.60;7.70;;;5.60;99.90;;;;;;5088141;28;20177;-47
2021/10/16 00:44:10;;;;;;;10.40;7.30;;;5.60;99.90;;;;;;5084675;28;20200;-48
2021/10/16 00:46:36;;;;;;;10.30;6.88;;;5.60;99.90;;;;;;5085862;28;20191;-50
2021/10/16 00:49:01;;;;;;;9.07;7.30;;;5.70;99.90;;;;;;5087269;28;20193;-49
2021/10/16 00:51:27;;;;;;;9.17;6.87;;;5.60;99.90;;;;;;5088571;28;20224;-50
2021/10/16 00:53:52;;;;;;;8.50;7.13;;;5.70;99.90;;;;;;5087920;28;20272;-48
2021/10/16 00:56:18;;;;;;;11.33;7.93;;;5.70;99.90;;;;;;5088278;28;20181;-49
2021/10/16 00:58:44;;;;;;;13.03;9.03;;;5.70;99.90;;;;;;5086259;28;20184;-50
2021/10/16 01:01:10;;;;;;;14.10;7.90;;;5.70;99.90;;;;;;5087108;28;20654;-50
2021/10/16 01:03:35;;;;;;;12.17;8.53;;;5.70;99.90;;;;;;5088644;28;20184;-47
2021/10/16 01:06:01;;;;;;;10.57;7.87;;;5.70;99.90;;;;;;5080190;28;20671;-50
2021/10/16 01:08:26;;;;;;;9.83;7.40;;;5.70;99.90;;;;;;5088473;28;20185;-51
2021/10/16 01:10:52;;;;;;;16.27;9.53;;;5.70;99.90;;;;;;5074176;28;20185;-50
2021/10/16 01:13:18;;;;;;;14.20;9.47;;;5.60;99.90;;;;;;5087478;28;20260;-57
2021/10/16 01:15:45;;;;;;;11.70;8.77;;;5.60;99.90;;;;;;5091222;28;20196;-49
2021/10/16 01:18:11;;;;;;;10.50;7.45;;;5.50;99.90;;;;;;5091237;28;20427;-48
2021/10/16 01:20:44;;;;;;;10.93;7.85;;;5.50;99.90;;;;;;5091285;28;20254;-53
2021/10/16 01:23:10;;;;;;;14.98;8.80;;;5.40;99.90;;;;;;5075328;28;20178;-49
2021/10/16 01:25:37;;;;;;;10.15;7.85;;;5.40;99.90;;;;;;5078371;28;20181;-49
2021/10/16 01:28:03;;;;;;;10.82;7.50;;;5.40;99.90;;;;;;5088133;28;20177;-50
2021/10/16 01:30:29;;;;;;;10.43;7.70;;;5.40;99.90;;;;;;5091365;28;20181;-48
2021/10/16 01:32:55;;;;;;;9.70;7.50;;;5.40;99.90;;;;;;5090984;28;20304;-49
2021/10/16 01:35:21;;;;;;;8.50;6.90;;;5.30;99.90;;;;;;5080352;28;20267;-47
2021/10/16 01:37:48;;;;;;;10.70;8.27;;;5.30;99.90;;;;;;5089704;28;20173;-50
2021/10/16 01:40:14;;;;;;;8.88;7.57;;;5.20;99.90;;;;;;5076509;28;20843;-51
2021/10/16 01:42:44;;;;;;;9.80;7.45;;;5.20;99.90;;;;;;5090588;28;20208;-45
2021/10/16 01:45:12;;;;;;;8.43;7.32;;;5.20;99.90;;;;;;5085641;28;20242;-51
2021/10/16 01:47:47;;;;;;;11.15;7.70;;;5.20;99.90;;;;;;5088051;28;21058;-49
2021/10/16 01:50:13;;;;;;;9.48;7.85;;;5.20;99.90;;;;;;5081043;28;20259;-46
2021/10/16 01:52:39;;;;;;;11.90;7.47;;;5.20;99.90;;;;;;5089192;28;20236;-49
2021/10/16 01:55:05;;;;;;;9.60;8.33;;;5.10;99.90;;;;;;5088202;28;20415;-51
2021/10/16 01:57:30;;;;;;;11.45;8.60;;;5.10;99.90;;;;;;5082079;28;20196;-49
2021/10/16 01:59:56;;;;;;;15.00;8.10;;;5.10;99.90;;;;;;5088103;28;20188;-47
2021/10/16 02:02:22;;;;;;;10.00;8.37;;;5.10;99.90;;;;;;5090300;28;20191;-49
2021/10/16 02:04:48;;;;;;;12.52;9.52;;;5.10;99.90;;;;;;5089930;28;20196;-51
2021/10/16 02:07:13;;;;;;;11.87;7.13;;;5.10;99.90;;;;;;5090656;28;20943;-49
2021/10/16 02:09:39;;;;;;;11.20;8.07;;;5.10;99.90;;;;;;5088382;28;20237;-51
2021/10/16 02:12:04;;;;;;;10.60;8.67;;;5.00;99.90;;;;;;5088343;28;20201;-51
2021/10/16 02:14:30;;;;;;;11.97;8.30;;;5.00;99.90;;;;;;5082335;28;20188;-49
2021/10/16 02:16:56;;;;;;;11.07;7.50;;;4.90;99.90;;;;;;5090033;28;20185;-48
2021/10/16 02:19:21;;;;;;;10.63;8.03;;;4.80;99.90;;;;;;5088880;28;20596;-49
2021/10/16 02:21:47;;;;;;;13.30;8.80;;;4.70;99.90;;;;;;5090627;28;20186;-49
2021/10/16 02:24:12;;;;;;;11.90;7.27;;;4.70;99.90;;;;;;5088722;28;20773;-51
2021/10/16 02:26:38;;;;;;;10.80;7.83;;;4.70;99.90;;;;;;5088080;28;20185;-53
2021/10/16 02:29:03;;;;;;;9.53;8.20;;;4.60;99.90;;;;;;5090644;28;20296;-48
2021/10/16 02:31:29;;;;;;;12.00;7.80;;;4.60;99.90;;;;;;5084393;28;20254;-49
2021/10/16 02:33:55;;;;;;;7.90;6.83;;;4.60;99.90;;;;;;5080850;28;20180;-51
2021/10/16 02:36:20;;;;;;;10.27;7.90;;;4.60;99.90;;;;;;5089892;28;20200;-49
2021/10/16 02:38:46;;;;;;;10.37;7.27;;;4.60;99.90;;;;;;5083020;28;20257;-50
2021/10/16 02:41:11;;;;;;;10.00;7.23;;;4.60;99.90;;;;;;5089025;28;20746;-52
2021/10/16 02:43:38;;;;;;;12.80;7.10;;;4.60;99.90;;;;;;5086912;28;20994;-52
2021/10/16 02:46:03;;;;;;;8.63;6.57;;;4.50;99.90;;;;;;5088588;28;20222;-53
2021/10/16 02:48:29;;;;;;;9.53;6.77;;;4.50;99.90;;;;;;5084306;28;20180;-50
2021/10/16 02:50:54;;;;;;;10.47;6.57;;;4.50;99.90;;;;;;5086760;28;20232;-47
2021/10/16 02:53:20;;;;;;;12.83;8.00;;;4.50;99.90;;;;;;5090538;28;20157;-51
2021/10/16 02:55:45;;;;;;;11.10;7.03;;;4.50;99.90;;;;;;5088467;28;20184;-51
2021/10/16 02:58:11;;;;;;;8.80;7.07;;;4.50;99.90;;;;;;5089784;28;20173;-51
2021/10/16 03:00:36;;;;;;;11.00;7.43;;;4.50;99.90;;;;;;5090387;28;20169;-49
2021/10/16 03:03:02;;;;;;;10.50;7.20;;;4.50;99.90;;;;;;5085873;28;20188;-51
2021/10/16 03:05:28;;;;;;;13.15;7.38;;;4.50;99.90;;;;;;5089484;28;20672;-50
2021/10/16 03:07:54;;;;;;;10.57;6.90;;;4.50;99.90;;;;;;5088035;28;20181;-54
2021/10/16 03:10:19;;;;;;;8.77;7.17;;;4.50;99.90;;;;;;5082882;28;20181;-53
2021/10/16 03:12:45;;;;;;;12.37;7.90;;;4.50;99.90;;;;;;5087627;28;20192;-48
2021/10/16 03:15:10;;;;;;;10.33;7.20;;;4.50;99.90;;;;;;5090023;28;20173;-49
2021/10/16 03:17:36;;;;;;;9.30;7.20;;;4.50;99.90;;;;;;5087978;28;20272;-52
2021/10/16 03:20:02;;;;;;;9.57;7.30;;;4.50;99.90;;;;;;5089311;28;20243;-52
2021/10/16 03:22:28;;;;;;;10.30;7.88;;;4.50;99.90;;;;;;5088730;28;20185;-51
2021/10/16 03:24:53;;;;;;;12.13;8.00;;;4.50;99.90;;;;;;5088635;28;20188;-49
2021/10/16 03:27:19;;;;;;;12.37;6.83;;;4.40;99.90;;;;;;5088458;28;20237;-48
2021/10/16 03:29:44;;;;;;;10.00;7.67;;;4.40;99.90;;;;;;5087920;28;20188;-51
2021/10/16 03:32:10;;;;;;;12.33;7.53;;;4.40;99.90;;;;;;5089592;28;20208;-48
2021/10/16 03:34:35;;;;;;;9.37;7.03;;;4.40;99.90;;;;;;5088465;28;20529;-48
2021/10/16 03:37:01;;;;;;;9.97;7.60;;;4.30;99.90;;;;;;5087257;28;20627;-49
2021/10/16 03:39:26;;;;;;;10.07;7.60;;;4.30;99.90;;;;;;5084200;28;20200;-50
2021/10/16 03:41:52;;;;;;;11.30;8.07;;;4.30;99.90;;;;;;5088594;28;20188;-48
2021/10/16 03:44:17;;;;;;;9.73;8.07;;;4.30;99.90;;;;;;5088489;28;20184;-51
2021/10/16 03:46:43;;;;;;;12.60;8.47;;;4.20;99.90;;;;;;5085187;28;20188;-52
2021/10/16 03:49:09;;;;;;;15.20;11.00;;;4.20;99.90;;;;;;5082197;28;20185;-47
2021/10/16 03:51:34;;;;;;;18.80;12.90;;;4.30;99.90;;;;;;5089075;28;20239;-52
2021/10/16 03:54:01;;;;;;;14.73;10.90;;;4.30;99.90;;;;;;5087358;28;20538;-50
2021/10/16 03:56:27;;;;;;;19.58;12.50;;;4.30;99.90;;;;;;5088557;28;20276;-52
2021/10/16 03:58:52;;;;;;;15.27;10.87;;;4.20;99.90;;;;;;5086476;28;20276;-48
2021/10/16 04:01:18;;;;;;;12.17;10.53;;;4.20;99.90;;;;;;5088440;28;20638;-48
2021/10/16 04:03:43;;;;;;;16.37;10.90;;;4.20;99.90;;;;;;5080726;28;20204;-49
2021/10/16 04:06:09;;;;;;;13.47;10.30;;;4.20;99.90;;;;;;5087518;28;20208;-49
2021/10/16 04:08:34;;;;;;;14.53;10.50;;;4.20;99.90;;;;;;5088572;28;20538;-52
2021/10/16 04:11:00;;;;;;;13.63;10.50;;;4.20;99.90;;;;;;5088322;28;20185;-48
2021/10/16 04:13:25;;;;;;;14.20;10.60;;;4.10;99.90;;;;;;5086408;28;20180;-52
2021/10/16 04:15:51;;;;;;;15.07;10.57;;;4.10;99.90;;;;;;5089391;28;20200;-49
2021/10/16 04:18:17;;;;;;;15.00;11.03;;;4.10;99.90;;;;;;5086313;28;20188;-49
2021/10/16 04:20:42;;;;;;;16.73;13.80;;;4.00;99.90;;;;;;5088478;28;20209;-49
2021/10/16 04:23:08;;;;;;;12.80;10.17;;;4.30;99.90;;;;;;5089223;28;20219;-51
2021/10/16 04:25:33;;;;;;;16.60;12.63;;;4.20;99.90;;;;;;5086380;28;20196;-55
2021/10/16 04:27:59;;;;;;;16.63;12.10;;;4.20;99.90;;;;;;5088375;28;20184;-51
2021/10/16 04:30:24;;;;;;;13.83;11.77;;;4.10;99.90;;;;;;5087238;28;20231;-50
2021/10/16 04:32:50;;;;;;;15.97;12.60;;;4.10;99.90;;;;;;5086280;28;20212;-49
2021/10/16 04:35:16;;;;;;;15.50;12.10;;;3.90;99.90;;;;;;5086890;28;20253;-53
2021/10/16 04:37:41;;;;;;;16.83;12.90;;;3.90;99.90;;;;;;5086915;28;20181;-49
2021/10/16 04:40:17;;;;;;;15.07;10.57;;;3.90;99.90;;;;;;5088816;28;20699;-61
2021/10/16 04:42:44;;;;;;;14.02;10.75;;;3.90;99.90;;;;;;5079468;28;20643;-51
2021/10/16 04:45:12;;;;;;;12.98;10.48;;;3.90;99.90;;;;;;5093346;28;20189;-52
2021/10/16 04:47:38;;;;;;;13.00;9.60;;;3.90;99.90;;;;;;5091673;28;20181;-51
2021/10/16 04:50:05;;;;;;;18.30;10.50;;;3.90;99.90;;;;;;5089812;28;20254;-50
2021/10/16 04:52:32;;;;;;;13.27;9.45;;;3.90;99.90;;;;;;5092725;28;20300;-53
2021/10/16 04:54:58;;;;;;;13.93;9.13;;;3.90;99.90;;;;;;5091245;28;20288;-49
2021/10/16 04:57:23;;;;;;;14.47;8.90;;;3.90;99.90;;;;;;5091818;28;20296;-50
2021/10/16 04:59:49;;;;;;;13.43;9.87;;;3.90;99.90;;;;;;5075788;28;20247;-53
2021/10/16 05:02:14;;;;;;;12.80;8.67;;;3.90;99.90;;;;;;5086718;28;20189;-58
2021/10/16 05:04:40;;;;;;;11.63;8.77;;;4.00;99.90;;;;;;5091446;28;20575;-50
2021/10/16 05:07:05;;;;;;;12.70;9.60;;;4.00;99.90;;;;;;5091807;28;20229;-50
2021/10/16 05:09:34;;;;;;;13.90;9.10;;;4.10;99.90;;;;;;5092449;28;20184;-48
2021/10/16 05:12:00;;;;;;;14.75;10.00;;;4.20;99.90;;;;;;5090519;28;20621;-53
2021/10/16 05:14:25;;;;;;;16.57;10.10;;;4.20;99.90;;;;;;5092244;28;20180;-53
2021/10/16 05:16:51;;;;;;;12.90;8.80;;;4.30;99.90;;;;;;5088833;28;20268;-50
2021/10/16 05:19:16;;;;;;;12.70;9.50;;;4.40;99.90;;;;;;5092295;28;20208;-48
2021/10/16 05:21:42;;;;;;;15.80;9.40;;;4.40;99.90;;;;;;5083745;28;20537;-53
2021/10/16 05:24:07;;;;;;;13.40;8.47;;;4.50;99.90;;;;;;5089959;28;20982;-51
2021/10/16 05:26:34;;;;;;;12.40;9.10;;;4.40;99.90;;;;;;5087600;28;20635;-49
2021/10/16 05:28:59;;;;;;;13.38;8.75;;;4.40;99.90;;;;;;5080696;28;20181;-50
2021/10/16 05:31:25;;;;;;;10.53;8.30;;;4.40;99.90;;;;;;5090963;28;20598;-54
2021/10/16 05:33:51;;;;;;;12.53;8.93;;;4.30;99.90;;;;;;5081357;28;20675;-53
2021/10/16 05:36:17;;;;;;;14.52;9.27;;;4.30;99.90;;;;;;5087404;28;20276;-50
2021/10/16 05:38:42;;;;;;;11.80;8.60;;;4.30;99.90;;;;;;5090073;28;20608;-50
2021/10/16 05:41:08;;;;;;;12.57;7.97;;;4.30;99.90;;;;;;5091202;28;20181;-59
2021/10/16 05:43:34;;;;;;;12.83;8.00;;;4.20;99.90;;;;;;5091502;28;20623;-48
2021/10/16 05:46:01;;;;;;;11.57;8.37;;;4.20;99.90;;;;;;5083522;28;20181;-51
2021/10/16 05:48:30;;;;;;;11.50;8.15;;;4.20;99.90;;;;;;5084492;28;20209;-50
2021/10/16 05:50:56;;;;;;;19.75;9.07;;;4.20;99.90;;;;;;5089830;28;20229;-50
2021/10/16 05:53:21;;;;;;;13.95;8.75;;;4.20;99.90;;;;;;5089299;28;20191;-52
2021/10/16 05:55:47;;;;;;;11.60;8.83;;;4.20;99.90;;;;;;5081119;28;20185;-53
2021/10/16 05:58:12;;;;;;;12.53;8.47;;;4.20;99.90;;;;;;5082210;28;20188;-48
2021/10/16 06:00:38;;;;;;;12.00;9.10;;;4.20;99.90;;;;;;5081453;28;20752;-52
2021/10/16 06:03:03;;;;;;;13.70;9.00;;;4.20;99.90;;;;;;5081591;28;20196;-51
2021/10/16 06:05:29;;;;;;;15.87;9.10;;;4.30;99.90;;;;;;5081693;28;20752;-50
2021/10/16 06:07:54;;;;;;;14.23;9.13;;;4.30;99.90;;;;;;5082157;28;20593;-54
2021/10/16 06:10:20;;;;;;;13.40;9.87;;;4.40;99.90;;;;;;5080940;28;20184;-51
2021/10/16 06:12:45;;;;;;;12.27;9.57;;;4.50;99.90;;;;;;5082018;28;20516;-50
2021/10/16 06:15:11;;;;;;;13.23;8.93;;;4.60;99.90;;;;;;5081280;28;20271;-53
2021/10/16 06:17:36;;;;;;;12.33;9.57;;;4.70;99.90;;;;;;5081693;28;20188;-51
2021/10/16 06:20:03;;;;;;;13.10;9.50;;;4.80;99.90;;;;;;5080492;28;20984;-53
2021/10/16 06:22:28;;;;;;;13.40;9.50;;;5.00;99.90;;;;;;5079662;28;20239;-50
2021/10/16 06:24:54;;;;;;;17.87;10.03;;;5.00;99.90;;;;;;5078114;28;20201;-53
2021/10/16 06:27:20;;;;;;;14.23;10.20;;;5.10;99.90;;;;;;5078471;28;20283;-52
2021/10/16 06:29:46;;;;;;;14.68;9.70;;;5.20;99.90;;;;;;5081914;28;20542;-59
2021/10/16 06:32:11;;;;;;;14.40;9.70;;;5.20;99.90;;;;;;5079339;28;20197;-51
2021/10/16 06:34:38;;;;;;;18.97;12.30;;;5.40;99.90;;;;;;5080506;28;20521;-51
2021/10/16 06:37:04;;;;;;;18.17;10.80;;;5.40;99.90;;;;;;5078814;28;20173;-52
2021/10/16 06:39:29;;;;;;;16.37;10.90;;;5.50;99.90;;;;;;5086154;28;20204;-56
2021/10/16 06:41:55;;;;;;;16.13;11.17;;;5.60;99.90;;;;;;5080314;28;20438;-52
2021/10/16 06:44:21;;;;;;;14.13;10.13;;;5.70;99.90;;;;;;5082780;28;20546;-51
2021/10/16 06:46:46;;;;;;;14.37;10.57;;;5.80;99.90;;;;;;5083369;28;20242;-50
2021/10/16 06:49:12;;;;;;;15.73;11.63;;;6.00;99.90;;;;;;5081835;28;20177;-51
2021/10/16 06:51:38;;;;;;;15.57;11.03;;;6.00;99.90;;;;;;5080869;28;20236;-52
2021/10/16 06:54:04;;;;;;;17.83;10.35;;;6.10;99.90;;;;;;5080192;28;20178;-52
2021/10/16 06:56:29;;;;;;;15.57;11.50;;;6.30;99.90;;;;;;5089255;28;20181;-49
2021/10/16 06:58:55;;;;;;;18.57;11.90;;;6.40;99.90;;;;;;5087351;28;20184;-50
2021/10/16 07:01:20;;;;;;;15.80;11.57;;;6.40;99.90;;;;;;5088777;28;20185;-51
2021/10/16 07:03:46;;;;;;;14.67;10.47;;;6.60;99.90;;;;;;5087258;28;20271;-51
2021/10/16 07:06:12;;;;;;;16.83;10.77;;;6.70;99.90;;;;;;5088654;28;20193;-52
2021/10/16 07:08:37;;;;;;;15.47;10.80;;;6.70;99.90;;;;;;5088324;28;20192;-54
2021/10/16 07:11:03;;;;;;;15.10;11.23;;;6.80;99.90;;;;;;5087583;28;20597;-51
2021/10/16 07:13:29;;;;;;;17.23;11.50;;;7.00;99.90;;;;;;5089864;28;20173;-51
2021/10/16 07:15:54;;;;;;;13.60;10.60;;;7.10;99.90;;;;;;5087904;28;20185;-51
2021/10/16 07:18:20;;;;;;;17.07;10.40;;;7.20;99.90;;;;;;5089377;28;20187;-59
2021/10/16 07:20:46;;;;;;;14.70;10.20;;;7.20;99.90;;;;;;5084298;28;20669;-54
2021/10/16 07:23:16;;;;;;;13.37;10.10;;;7.30;99.90;;;;;;5072596;28;20185;-51
2021/10/16 07:25:43;;;;;;;15.77;11.17;;;7.40;99.90;;;;;;5082027;28;20201;-48
2021/10/16 07:28:09;;;;;;;19.03;11.27;;;7.40;99.90;;;;;;5088808;28;20968;-50
2021/10/16 07:30:35;;;;;;;17.80;12.13;;;7.40;99.90;;;;;;5088410;28;20502;-55
2021/10/16 07:33:00;;;;;;;17.03;10.43;;;7.50;99.90;;;;;;5076418;28;20950;-53
2021/10/16 07:35:26;;;;;;;15.63;10.00;;;7.50;99.90;;;;;;5085198;28;20260;-50
2021/10/16 07:37:51;;;;;;;14.90;10.50;;;7.60;99.90;;;;;;5082048;28;20256;-53
2021/10/16 07:40:17;;;;;;;14.70;11.37;;;7.80;99.90;;;;;;5081662;28;20833;-52
2021/10/16 07:42:42;;;;;;;14.77;9.63;;;7.90;99.90;;;;;;5086679;28;20266;-49
2021/10/16 07:45:10;;;;;;;15.40;10.80;;;8.00;99.90;;;;;;5086820;28;20195;-52
2021/10/16 07:47:36;;;;;;;14.00;9.10;;;8.20;99.90;;;;;;5089431;28;20646;-52
2021/10/16 07:50:02;;;;;;;13.83;10.27;;;8.50;99.90;;;;;;5087231;28;20469;-52
2021/10/16 07:52:28;;;;;;;14.70;9.73;;;8.80;99.90;;;;;;5088759;28;20459;-53
2021/10/16 07:54:54;;;;;;;10.50;9.30;;;9.20;99.90;;;;;;5085465;28;20517;-52
2021/10/16 07:57:21;;;;;;;10.60;8.10;;;9.60;99.90;;;;;;5076144;28;20449;-53
2021/10/16 07:59:47;;;;;;;12.90;9.30;;;9.90;99.90;;;;;;5084474;28;20191;-50
2021/10/16 08:02:12;;;;;;;13.13;8.53;;;10.40;99.90;;;;;;5082430;28;20438;-52
2021/10/16 08:04:38;;;;;;;12.80;7.63;;;10.80;99.90;;;;;;5080470;28;20197;-50
2021/10/16 08:07:04;;;;;;;9.47;7.03;;;11.60;99.90;;;;;;5098534;28;20298;-49
2021/10/16 08:09:30;;;;;;;8.83;7.07;;;12.00;99.90;;;;;;5086432;28;20438;-59
2021/10/16 08:11:55;;;;;;;8.10;6.13;;;12.40;99.90;;;;;;5088081;28;20205;-50
2021/10/16 08:14:21;;;;;;;8.30;6.70;;;12.70;99.90;;;;;;5087651;28;20185;-50
2021/10/16 08:16:46;;;;;;;9.93;6.07;;;12.90;99.90;;;;;;5089346;28;20208;-52
2021/10/16 08:19:12;;;;;;;7.30;6.40;;;13.20;99.90;;;;;;5091047;28;20177;-51
2021/10/16 08:21:38;;;;;;;12.60;7.43;;;13.70;99.90;;;;;;5090884;28;20185;-52
2021/10/16 08:24:04;;;;;;;8.03;6.73;;;14.30;99.90;;;;;;5082144;28;20197;-50
2021/10/16 08:26:29;;;;;;;8.80;7.43;;;15.00;99.90;;;;;;5079435;28;20177;-55
2021/10/16 08:28:55;;;;;;;8.30;7.40;;;15.30;99.90;;;;;;5078773;28;20427;-52
2021/10/16 08:31:21;;;;;;;7.30;6.60;;;15.30;99.90;;;;;;5086144;28;20331;-52
2021/10/16 08:33:46;;;;;;;8.90;7.17;;;15.10;99.90;;;;;;5089602;28;20188;-51
2021/10/16 08:36:13;;;;;;;9.07;7.33;;;14.70;99.90;;;;;;5088877;28;20197;-50
2021/10/16 08:38:42;;;;;;;11.80;7.90;;;14.60;99.90;;;;;;5085151;28;20193;-50
2021/10/16 08:41:12;;;;;;;8.63;7.80;;;14.20;99.90;;;;;;5082367;28;20434;-49
2021/10/16 08:43:40;;;;;;;10.20;7.20;;;14.00;99.90;;;;;;5084558;28;20430;-54
2021/10/16 08:46:06;;;;;;;7.97;7.27;;;13.90;99.90;;;;;;5087052;28;20411;-50
2021/10/16 08:48:32;;;;;;;8.23;7.17;;;14.10;99.90;;;;;;5087099;28;20442;-53
2021/10/16 08:50:59;;;;;;;9.10;7.03;;;14.00;99.90;;;;;;5090557;28;20466;-52
2021/10/16 08:53:25;;;;;;;9.37;7.70;;;14.20;99.90;;;;;;5090969;28;21252;-51
2021/10/16 08:55:52;;;;;;;9.20;8.20;;;14.20;99.90;;;;;;5078604;28;20403;-51
2021/10/16 08:58:19;;;;;;;9.07;8.20;;;14.30;99.90;;;;;;5076675;28;20414;-48
2021/10/16 09:00:52;;;;;;;9.00;8.10;;;14.20;99.90;;;;;;5083654;28;20522;-53
2021/10/16 09:03:25;;;;;;;12.00;10.80;;;14.10;99.90;;;;;;5076217;28;20424;-50
2021/10/16 09:05:57;;;;;;;8.30;7.40;;;14.30;99.90;;;;;;5073704;28;20470;-49
2021/10/16 09:09:00;;;;;;;9.07;7.40;;;14.40;99.90;;;;;;5077270;28;20403;-51
2021/10/16 09:11:35;;;;;;;10.10;8.00;;;14.70;99.90;;;;;;5006952;28;20473;-53
2021/10/16 09:14:08;;;;;;;9.70;8.10;;;15.50;99.90;;;;;;5063440;28;20925;-51
2021/10/16 09:16:42;;;;;;;8.70;7.20;;;16.70;99.90;;;;;;5075311;28;20780;-50
2021/10/16 09:19:11;;;;;;;12.27;8.40;;;17.50;99.90;;;;;;5075183;28;20434;-54
2021/10/16 09:21:48;;;;;;;9.03;8.13;;;18.10;97.70;;;;;;5076269;28;20454;-52
2021/10/16 09:24:38;;;;;;;8.17;7.30;;;18.50;96.00;;;;;;5082627;28;20438;-50
2021/10/16 09:27:05;;;;;;;10.43;8.67;;;18.30;95.00;;;;;;5068551;28;20428;-51
2021/10/16 09:29:39;;;;;;;9.90;8.80;;;17.60;94.20;;;;;;5077636;28;20469;-51
2021/10/16 09:32:15;;;;;;;9.43;8.53;;;16.80;95.40;;;;;;5076455;28;20991;-52
2021/10/16 09:34:43;;;;;;;9.00;7.83;;;16.50;97.50;;;;;;5081433;28;20413;-51
2021/10/16 09:37:13;;;;;;;9.50;8.50;;;16.60;97.10;;;;;;5072495;28;20493;-47
2021/10/16 09:39:41;;;;;;;9.20;8.20;;;16.70;97.60;;;;;;5076476;28;20418;-50
2021/10/16 09:42:09;;;;;;;9.00;8.17;;;17.60;96.10;;;;;;5077125;28;20447;-49
2021/10/16 09:44:37;;;;;;;9.97;7.90;;;18.10;94.60;;;;;;5072022;28;20454;-53
2021/10/16 09:47:12;;;;;;;8.50;7.70;;;18.30;94.50;;;;;;5074878;28;20884;-51
2021/10/16 09:49:43;;;;;;;9.03;7.97;;;18.60;94.10;;;;;;5074804;28;20506;-50
2021/10/16 09:52:11;;;;;;;8.83;7.47;;;18.60;93.20;;;;;;5076406;28;20479;-48
2021/10/16 09:54:38;;;;;;;8.43;7.53;;;18.30;93.60;;;;;;5073879;28;20868;-50
2021/10/16 09:57:06;;;;;;;8.70;7.83;;;18.10;93.60;;;;;;5078262;28;20412;-52
2021/10/16 09:59:33;;;;;;;9.30;8.40;;;18.30;93.70;;;;;;5075779;28;20446;-50
2021/10/16 10:02:01;;;;;;;9.23;7.27;;;18.00;93.10;;;;;;5077263;28;20437;-50
2021/10/16 10:04:27;;;;;;;10.27;8.57;;;17.40;93.70;;;;;;5074441;28;20427;-48
2021/10/16 10:06:56;;;;;;;9.77;7.83;;;17.10;93.90;;;;;;5070122;28;20415;-58
2021/10/16 10:09:23;;;;;;;8.70;7.53;;;16.90;95.10;;;;;;5073575;28;20407;-51
2021/10/16 10:11:53;;;;;;;9.10;8.20;;;16.70;96.20;;;;;;5076278;28;20533;-49
2021/10/16 10:14:20;;;;;;;8.40;7.70;;;16.20;95.70;;;;;;5087356;28;20491;-54
2021/10/16 10:16:49;;;;;;;7.83;7.10;;;15.90;97.20;;;;;;5075220;28;20415;-48
2021/10/16 10:19:16;;;;;;;8.03;7.23;;;15.60;99.50;;;;;;5082026;28;20444;-47
2021/10/16 10:21:42;;;;;;;8.20;7.37;;;15.40;99.70;;;;;;5088081;28;20434;-48
2021/10/16 10:24:10;;;;;;;7.20;6.50;;;15.20;99.90;;;;;;5090094;28;20486;-52
2021/10/16 10:26:40;;;;;;;6.97;6.23;;;15.00;99.90;;;;;;5086576;28;20889;-50
2021/10/16 10:29:13;;;;;;;7.17;6.30;;;14.70;99.90;;;;;;5089659;28;20414;-51
2021/10/16 10:31:44;;;;;;;7.43;6.57;;;14.60;99.90;;;;;;5084515;28;21027;-51
2021/10/16 10:34:17;;;;;;;9.30;7.50;;;14.40;99.90;;;;;;5081923;28;20499;-53
2021/10/16 10:36:45;;;;;;;10.37;7.70;;;14.30;99.90;;;;;;5088738;28;20773;-52
2021/10/16 10:39:33;;;;;;;10.13;6.73;;;14.20;99.90;;;;;;5089591;28;20783;-52
2021/10/16 10:42:21;;;;;;;8.27;6.40;;;14.00;99.90;;;;;;5071076;28;20419;-52
2021/10/16 10:44:48;;;;;;;7.27;6.57;;;13.80;99.90;;;;;;5087058;28;20753;-55
2021/10/16 10:47:22;;;;;;;10.90;7.63;;;13.90;99.90;;;;;;5089266;28;20407;-51
2021/10/16 10:49:49;;;;;;;10.70;6.50;;;13.80;99.90;;;;;;5088517;28;20406;-51
2021/10/16 10:52:15;;;;;;;10.00;6.40;;;13.70;99.90;;;;;;5087036;28;20462;-50
2021/10/16 10:55:08;;;;;;;7.73;6.10;;;13.60;99.90;;;;;;5088230;28;20487;-53
2021/10/16 10:57:50;;;;;;;7.90;6.20;;;13.60;99.90;;;;;;5078861;28;20719;-50
2021/10/16 11:00:38;;;;;;;7.03;6.03;;;13.50;99.90;;;;;;5083265;28;20514;-54
2021/10/16 11:03:43;;;;;;;7.10;5.67;;;13.40;99.90;;;;;;5083028;28;20419;-57
2021/10/16 11:06:08;;;;;;;9.10;6.57;;;13.40;99.90;;;;;;5072643;28;20436;-49
2021/10/16 11:08:35;;;;;;;5.53;4.80;;;13.40;99.90;;;;;;5079628;28;20426;-54
2021/10/16 11:11:02;;;;;;;9.50;6.17;;;13.40;99.90;;;;;;5078878;28;20205;-51
2021/10/16 11:13:27;;;;;;;6.70;5.10;;;13.60;99.90;;;;;;5076541;28;20424;-53
2021/10/16 11:15:58;;;;;;;6.03;5.43;;;13.90;99.90;;;;;;5077991;28;20419;-52
2021/10/16 11:18:24;;;;;;;6.40;5.07;;;14.00;99.90;;;;;;5076671;28;20190;-53
2021/10/16 11:20:49;;;;;;;5.60;4.93;;;14.20;99.90;;;;;;5073779;28;20933;-60
2021/10/16 11:23:21;;;;;;;9.03;8.10;;;14.20;99.90;;;;;;5070924;28;20435;-51
2021/10/16 11:25:58;;;;;;;6.50;5.17;;;14.30;99.90;;;;;;5074330;28;20624;-59
2021/10/16 11:28:25;;;;;;;7.27;5.90;;;14.30;99.90;;;;;;5072480;28;20406;-48
2021/10/16 11:30:56;;;;;;;7.23;6.37;;;14.30;99.90;;;;;;5078857;28;20433;-49
2021/10/16 11:33:24;;;;;;;8.47;7.73;;;14.20;99.90;;;;;;5088021;28;20553;-53
2021/10/16 11:35:55;;;;;;;6.70;6.00;;;14.20;99.90;;;;;;5084928;28;20415;-53
2021/10/16 11:38:22;;;;;;;9.00;8.20;;;14.10;99.90;;;;;;5087429;28;20435;-53
2021/10/16 11:40:50;;;;;;;11.13;9.40;;;13.90;99.90;;;;;;5091477;28;20954;-49
2021/10/16 11:43:39;;;;;;;17.93;16.30;;;13.90;99.90;;;;;;5087202;28;20498;-48
2021/10/16 11:46:14;;;;;;;14.70;12.83;;;13.80;99.90;;;;;;5080335;28;20419;-51
2021/10/16 11:48:39;;;;;;;8.97;6.80;;;13.80;99.90;;;;;;5080773;28;20427;-50
2021/10/16 11:51:07;;;;;;;7.63;5.93;;;13.80;99.90;;;;;;5088138;28;20459;-50
2021/10/16 11:53:34;;;;;;;8.87;7.97;;;13.80;99.90;;;;;;5088145;28;20592;-54
2021/10/16 11:56:00;;;;;;;25.77;23.57;;;13.90;99.90;;;;;;5088257;28;20480;-50
2021/10/16 11:58:27;;;;;;;8.93;6.33;;;14.00;99.90;;;;;;5088323;28;20805;-50
2021/10/16 12:00:58;;;;;;;9.30;6.93;;;14.00;99.90;;;;;;5085964;28;20177;-48
2021/10/16 12:03:44;;;;;;;7.57;6.77;;;14.20;99.90;;;;;;5082536;28;20456;-54
2021/10/16 12:06:18;;;;;;;6.47;5.27;;;14.30;99.90;;;;;;5080380;28;20849;-50
2021/10/16 12:08:54;;;;;;;7.63;6.83;;;14.30;99.90;;;;;;5086062;28;21256;-47
2021/10/16 12:11:20;;;;;;;7.07;4.97;;;14.40;99.90;;;;;;5087120;28;20410;-49
2021/10/16 12:14:00;;;;;;;6.00;5.40;;;14.30;99.90;;;;;;5087700;28;20965;-51
2021/10/16 12:16:37;;;;;;;5.73;5.13;;;14.30;99.90;;;;;;5086962;28;20406;-54
2021/10/16 12:19:14;;;;;;;6.63;5.63;;;14.30;99.90;;;;;;5085464;28;20861;-51
2021/10/16 12:21:42;;;;;;;6.37;5.10;;;14.40;99.90;;;;;;5087305;28;20955;-52
2021/10/16 12:24:11;;;;;;;6.30;5.70;;;14.60;99.90;;;;;;5087725;28;20418;-50
2021/10/16 12:26:37;;;;;;;5.83;5.23;;;15.00;99.90;;;;;;5085609;28;20460;-52
2021/10/16 12:29:05;;;;;;;8.73;5.80;;;15.10;99.90;;;;;;5084046;28;20419;-50
2021/10/16 12:31:49;;;;;;;6.17;5.40;;;15.20;99.90;;;;;;5084247;28;20462;-52
2021/10/16 12:34:20;;;;;;;7.90;7.20;;;15.40;99.90;;;;;;5078184;28;20477;-49
2021/10/16 12:37:01;;;;;;;6.43;5.83;;;15.50;99.40;;;;;;5082410;28;20399;-52
2021/10/16 12:39:28;;;;;;;6.27;5.20;;;15.50;98.70;;;;;;5080173;28;20451;-50
2021/10/16 12:41:54;;;;;;;6.97;5.87;;;15.70;98.60;;;;;;5087238;28;20415;-50
2021/10/16 12:44:33;;;;;;;6.30;5.70;;;15.70;98.30;;;;;;5087992;28;21026;-59
2021/10/16 12:47:04;;;;;;;5.67;5.27;;;15.70;98.20;;;;;;5087910;28;20184;-50